Ross Corners, New York
Current Conditions -  °F | °C
As of 5:53 PM on Monday 24 Nov 2014 (Local Time) from KBGM Reporting Station
Clear Clear  
Wind Chill: 61°   Ceiling: Unl
Heat Index: 61°   Visibility: 10mi
Dew Point: 48°   Wind: 14mph
Humidity: 62%   Direction: 200°SSW
Pressure: 29.51"   Gusts: 28mph
Location:  42.0463°N, 76.0314°W
Report Text: KBGM 242253Z 20012G24KT 10SM CLR 16/09 A2951 RMK AO2 PK WND 21029/2226 SLP989 T01610089
Loading
Personal Weather Stations






























Interactive Weather Map New forecast layout! Learn more

10-Day Weather Forecast

Advertisements
Track Severe Weather on mobile